createdAt,value
2017-12-27T00:00:11.986Z,-1.08
2017-12-27T00:02:45.037Z,-1.00
2017-12-27T00:05:19.835Z,-0.37
2017-12-27T00:07:52.841Z,-0.42
2017-12-27T00:10:26.001Z,-0.68
2017-12-27T00:16:06.314Z,-1.11
2017-12-27T00:18:39.482Z,-1.05
2017-12-27T00:21:12.552Z,-0.88
2017-12-27T00:23:45.642Z,-1.01
2017-12-27T00:26:18.775Z,-0.71
2017-12-27T00:28:51.816Z,-1.26
2017-12-27T00:31:23.808Z,-1.28
2017-12-27T00:33:51.336Z,-1.04
2017-12-27T00:36:18.859Z,-0.66
2017-12-27T00:38:46.369Z,-0.53
2017-12-27T00:41:13.881Z,-0.40
2017-12-27T00:43:41.435Z,-0.87
2017-12-27T00:46:08.942Z,-1.10
2017-12-27T00:48:36.459Z,-0.88
2017-12-27T00:51:04.062Z,-1.03
2017-12-27T00:53:31.585Z,-0.59
2017-12-27T00:55:59.119Z,-0.56
2017-12-27T00:58:26.655Z,-0.31
2017-12-27T01:00:54.172Z,-0.35
2017-12-27T01:03:21.669Z,-0.79
2017-12-27T01:05:49.182Z,-0.74
2017-12-27T01:08:16.719Z,-1.06
2017-12-27T01:10:44.236Z,-0.47
2017-12-27T01:13:11.755Z,-0.57
2017-12-27T01:15:39.289Z,-1.16
2017-12-27T01:18:06.815Z,-0.63
2017-12-27T01:20:34.336Z,-0.37
2017-12-27T01:23:01.840Z,-0.45
2017-12-27T01:25:29.379Z,-0.34
2017-12-27T01:27:56.880Z,-0.09
2017-12-27T01:30:24.375Z,-0.06
2017-12-27T01:32:51.906Z,-0.24
2017-12-27T01:35:19.441Z,-0.73
2017-12-27T01:37:46.945Z,-0.68
2017-12-27T01:40:14.475Z,-0.69
2017-12-27T01:42:42.005Z,-0.34
2017-12-27T01:45:09.524Z,-0.14
2017-12-27T01:47:37.055Z,-0.12
2017-12-27T01:50:04.577Z,-0.33
2017-12-27T01:52:32.090Z,-0.30
2017-12-27T01:54:59.640Z,-0.66
2017-12-27T01:57:27.160Z,-0.64
2017-12-27T01:59:54.671Z,-0.24
2017-12-27T02:02:22.189Z,-0.99
2017-12-27T02:04:49.690Z,-1.20
2017-12-27T02:07:17.212Z,-0.97
2017-12-27T02:09:44.715Z,-0.59
2017-12-27T02:12:12.222Z,-0.49
2017-12-27T02:14:39.746Z,-0.28
2017-12-27T02:17:07.272Z,-0.45
2017-12-27T02:19:34.776Z,-0.15
2017-12-27T02:22:02.354Z,-0.54
2017-12-27T02:24:29.895Z,-0.82
2017-12-27T02:26:57.412Z,-1.09
2017-12-27T02:29:24.941Z,-1.06
2017-12-27T02:31:52.477Z,-1.20
2017-12-27T02:34:19.997Z,-1.15
2017-12-27T02:36:47.518Z,-1.00
2017-12-27T02:42:15.276Z,-0.55
2017-12-27T02:44:42.771Z,-0.57
2017-12-27T02:47:10.272Z,-0.47
2017-12-27T02:49:37.786Z,-0.67
2017-12-27T02:52:05.311Z,-1.10
2017-12-27T02:54:32.822Z,-0.54
2017-12-27T02:57:00.317Z,-0.63
2017-12-27T02:59:27.871Z,-0.83
2017-12-27T03:01:55.370Z,-1.06
2017-12-27T03:04:22.906Z,-1.08
2017-12-27T03:06:50.446Z,-0.89
2017-12-27T03:09:17.945Z,-0.52
2017-12-27T03:11:45.475Z,-0.29
2017-12-27T03:14:13.636Z,-0.28
2017-12-27T03:16:41.193Z,-0.29
2017-12-27T03:19:08.695Z,-0.66
2017-12-27T03:21:36.215Z,-0.56
2017-12-27T03:24:03.718Z,-1.24
2017-12-27T03:26:31.221Z,-1.38
2017-12-27T03:28:58.725Z,-0.93
2017-12-27T03:31:26.256Z,-0.72
2017-12-27T03:33:53.788Z,-1.29
2017-12-27T03:36:21.323Z,-1.11
2017-12-27T03:38:48.848Z,-0.91
2017-12-27T03:41:16.363Z,-0.97
2017-12-27T03:43:43.932Z,-0.45
2017-12-27T03:46:11.435Z,-0.69
2017-12-27T03:48:38.936Z,-0.53
2017-12-27T03:51:06.448Z,-1.06
2017-12-27T03:53:33.971Z,-0.98
2017-12-27T03:56:01.492Z,-0.78
2017-12-27T03:58:29.000Z,-0.80
2017-12-27T04:00:56.526Z,-0.74
2017-12-27T04:03:24.060Z,-0.43
2017-12-27T04:05:51.578Z,-0.59
2017-12-27T04:08:19.078Z,-0.73
2017-12-27T04:10:46.591Z,-0.72
2017-12-27T04:13:14.121Z,-0.57
2017-12-27T04:15:41.650Z,-0.65
2017-12-27T04:18:09.143Z,-0.53
2017-12-27T04:20:36.661Z,-0.38
2017-12-27T04:23:04.180Z,-0.54
2017-12-27T04:25:31.699Z,-0.55
2017-12-27T04:27:59.241Z,-0.56
2017-12-27T04:30:26.786Z,-0.64
2017-12-27T04:32:54.296Z,-0.51
2017-12-27T04:35:21.845Z,-1.23
2017-12-27T04:37:49.338Z,-0.96
2017-12-27T04:40:16.976Z,-0.88
2017-12-27T04:42:44.486Z,-1.20
2017-12-27T04:45:12.027Z,-0.78
2017-12-27T04:47:39.552Z,-1.03
2017-12-27T04:50:07.070Z,-1.24
2017-12-27T04:52:34.576Z,-1.18
2017-12-27T04:55:02.086Z,-0.93
2017-12-27T04:57:29.612Z,-1.10
2017-12-27T04:59:57.133Z,-0.96
2017-12-27T05:02:24.717Z,-0.82
2017-12-27T05:04:52.226Z,-0.67
2017-12-27T05:07:19.723Z,-0.56
2017-12-27T05:09:47.225Z,-0.41
2017-12-27T05:12:14.756Z,-0.85
2017-12-27T05:14:42.291Z,-0.92
2017-12-27T05:17:09.821Z,-0.59
2017-12-27T05:19:37.328Z,-1.22
2017-12-27T05:22:04.848Z,-1.36
2017-12-27T05:24:32.390Z,-1.12
2017-12-27T05:26:59.906Z,-1.02
2017-12-27T05:29:27.408Z,-0.54
2017-12-27T05:31:54.916Z,-1.04
2017-12-27T05:34:22.433Z,-0.83
2017-12-27T05:36:49.946Z,-0.83
2017-12-27T05:39:17.451Z,-0.70
2017-12-27T05:41:44.997Z,-0.48
2017-12-27T05:44:12.511Z,-0.31
2017-12-27T05:46:40.023Z,-0.12
2017-12-27T05:49:07.568Z,-0.15
2017-12-27T05:51:35.072Z,-0.17
2017-12-27T05:54:02.610Z,-0.37
2017-12-27T05:56:30.126Z,-0.20
2017-12-27T05:58:57.643Z,0.01
2017-12-27T06:01:25.186Z,0.08
2017-12-27T06:03:52.670Z,0.03
2017-12-27T06:06:20.190Z,0.14
2017-12-27T06:08:47.706Z,0.17
2017-12-27T06:11:15.260Z,0.24
2017-12-27T06:13:42.762Z,0.35
2017-12-27T06:16:10.293Z,0.14
2017-12-27T06:18:37.838Z,-0.16
2017-12-27T06:21:05.348Z,0.15
2017-12-27T06:23:32.893Z,0.36
2017-12-27T06:26:00.410Z,-0.08
2017-12-27T06:28:27.936Z,-0.13
2017-12-27T06:30:55.452Z,0.08
2017-12-27T06:33:22.968Z,0.41
2017-12-27T06:35:50.485Z,0.45
2017-12-27T06:38:17.994Z,0.11
2017-12-27T06:40:45.517Z,0.40
2017-12-27T06:43:13.037Z,0.20
2017-12-27T06:45:40.561Z,0.26
2017-12-27T06:48:08.233Z,0.38
2017-12-27T06:50:35.741Z,0.52
2017-12-27T06:53:03.272Z,0.17
2017-12-27T06:55:30.822Z,0.15
2017-12-27T06:57:58.373Z,-0.07
2017-12-27T07:00:25.888Z,0.00
2017-12-27T07:02:53.426Z,-0.07
2017-12-27T07:05:20.946Z,0.50
2017-12-27T07:07:48.467Z,0.30
2017-12-27T07:10:16.003Z,0.01
2017-12-27T07:12:43.512Z,0.25
2017-12-27T07:15:11.043Z,0.42
2017-12-27T07:17:38.552Z,0.30
2017-12-27T07:20:06.071Z,0.45
2017-12-27T07:22:33.576Z,0.61
2017-12-27T07:25:01.087Z,0.47
2017-12-27T07:27:28.617Z,0.78
2017-12-27T07:29:56.171Z,0.58
2017-12-27T07:32:23.733Z,0.44
2017-12-27T07:34:51.283Z,0.11
2017-12-27T07:37:18.808Z,0.26
2017-12-27T07:39:46.323Z,0.19
2017-12-27T07:42:13.831Z,0.32
2017-12-27T07:44:41.372Z,0.64
2017-12-27T07:47:08.883Z,0.53
2017-12-27T07:49:36.418Z,0.26
2017-12-27T07:52:03.924Z,0.91
2017-12-27T07:54:31.464Z,1.30
2017-12-27T07:56:58.998Z,1.49
2017-12-27T07:59:26.546Z,1.46
2017-12-27T08:01:54.074Z,1.52
2017-12-27T08:04:21.586Z,1.68
2017-12-27T08:06:49.113Z,1.65
2017-12-27T08:09:16.634Z,1.77
2017-12-27T08:11:44.172Z,1.94
2017-12-27T08:14:11.691Z,1.85
2017-12-27T08:16:39.189Z,1.97
2017-12-27T08:19:06.767Z,2.06
2017-12-27T08:21:34.280Z,2.30
2017-12-27T08:24:01.799Z,2.36
2017-12-27T08:26:29.309Z,1.58
2017-12-27T08:28:56.817Z,2.38
2017-12-27T08:31:24.346Z,2.45
2017-12-27T08:33:51.966Z,1.82
2017-12-27T08:36:19.467Z,2.30
2017-12-27T08:38:47.004Z,2.03
2017-12-27T08:41:14.508Z,2.73
2017-12-27T08:43:42.023Z,2.89
2017-12-27T08:46:09.524Z,2.88
2017-12-27T08:48:37.062Z,2.94
2017-12-27T08:51:04.574Z,2.93
2017-12-27T08:53:32.226Z,2.63
2017-12-27T08:55:59.738Z,2.74
2017-12-27T08:58:27.244Z,2.72
2017-12-27T09:00:54.768Z,2.90
2017-12-27T09:03:22.358Z,2.64
2017-12-27T09:05:49.884Z,2.02
2017-12-27T09:08:17.433Z,2.12
2017-12-27T09:10:44.960Z,2.32
2017-12-27T09:13:12.479Z,2.36
2017-12-27T09:15:40.005Z,2.66
2017-12-27T09:18:07.562Z,3.02
2017-12-27T09:20:35.927Z,3.35
2017-12-27T09:23:03.439Z,3.15
2017-12-27T09:25:31.001Z,3.10
2017-12-27T09:27:58.568Z,3.15
2017-12-27T09:30:26.103Z,3.26
2017-12-27T09:32:53.623Z,2.86
2017-12-27T09:35:21.153Z,3.14
2017-12-27T09:37:48.693Z,2.97
2017-12-27T09:40:17.262Z,3.26
2017-12-27T09:42:44.804Z,3.50
2017-12-27T09:45:12.329Z,3.48
2017-12-27T09:47:39.844Z,3.13
2017-12-27T09:50:07.382Z,3.15
2017-12-27T09:52:34.908Z,2.76
2017-12-27T09:55:02.424Z,3.22
2017-12-27T09:57:29.929Z,3.92
2017-12-27T09:59:57.444Z,3.93
2017-12-27T10:02:24.962Z,3.94
2017-12-27T10:04:52.504Z,4.20
2017-12-27T10:07:20.032Z,4.68
2017-12-27T10:09:47.547Z,4.90
2017-12-27T10:12:15.079Z,5.05
2017-12-27T10:14:42.613Z,5.23
2017-12-27T10:17:10.105Z,5.57
2017-12-27T10:19:37.657Z,4.56
2017-12-27T10:22:05.197Z,4.55
2017-12-27T10:24:32.712Z,4.55
2017-12-27T10:27:00.257Z,4.39
2017-12-27T10:29:27.913Z,4.57
2017-12-27T10:31:55.567Z,4.26
2017-12-27T10:34:23.148Z,4.68
2017-12-27T10:36:50.837Z,4.83
2017-12-27T10:39:18.329Z,5.22
2017-12-27T10:41:47.119Z,5.15
2017-12-27T10:44:15.409Z,4.89
2017-12-27T10:53:25.086Z,5.26
2017-12-27T10:55:52.608Z,5.75
2017-12-27T10:58:20.129Z,5.19
2017-12-27T11:00:47.658Z,5.43
2017-12-27T11:03:15.374Z,5.54
2017-12-27T11:05:42.994Z,6.28
2017-12-27T11:08:10.522Z,6.53
2017-12-27T11:10:38.070Z,6.48
2017-12-27T11:13:05.632Z,6.34
2017-12-27T11:15:33.137Z,6.68
2017-12-27T11:18:00.664Z,6.39
2017-12-27T11:20:28.193Z,6.57
2017-12-27T11:22:55.721Z,6.47
2017-12-27T11:25:23.263Z,7.03
2017-12-27T11:27:50.804Z,7.04
2017-12-27T11:30:18.306Z,6.73
2017-12-27T11:32:45.828Z,6.65
2017-12-27T11:35:13.339Z,7.06
2017-12-27T11:37:40.854Z,6.65
2017-12-27T11:40:08.409Z,6.56
2017-12-27T11:42:35.933Z,5.11
2017-12-27T11:45:03.448Z,5.58
2017-12-27T11:47:30.983Z,5.77
2017-12-27T11:49:58.512Z,6.13
2017-12-27T11:52:26.035Z,6.13
2017-12-27T11:54:53.546Z,5.12
2017-12-27T11:57:21.065Z,5.06
2017-12-27T11:59:48.593Z,5.27
2017-12-27T12:02:16.117Z,5.43
2017-12-27T12:04:43.639Z,5.00
2017-12-27T12:07:11.144Z,5.27
2017-12-27T12:09:38.663Z,5.74
2017-12-27T12:12:06.188Z,5.51
2017-12-27T12:14:33.976Z,5.75
2017-12-27T12:17:01.500Z,5.63
2017-12-27T12:19:29.023Z,5.81
2017-12-27T12:21:56.544Z,5.82
2017-12-27T12:24:24.082Z,5.81
2017-12-27T12:26:51.613Z,6.18
2017-12-27T12:29:19.130Z,6.21
2017-12-27T12:31:46.667Z,5.88
2017-12-27T12:34:14.309Z,5.73
2017-12-27T12:36:41.836Z,5.79
2017-12-27T12:39:09.377Z,5.98
2017-12-27T12:41:36.918Z,6.29
2017-12-27T12:44:04.453Z,5.79
2017-12-27T12:46:31.980Z,6.45
2017-12-27T12:48:59.498Z,6.03
2017-12-27T12:51:27.129Z,5.89
2017-12-27T12:53:54.648Z,6.02
2017-12-27T12:56:22.239Z,5.95
2017-12-27T12:58:49.774Z,6.17
2017-12-27T13:01:17.302Z,6.19
2017-12-27T13:03:44.876Z,6.05
2017-12-27T13:06:12.403Z,5.96
2017-12-27T13:08:39.952Z,5.82
2017-12-27T13:11:07.500Z,5.56
2017-12-27T13:13:35.112Z,5.63
2017-12-27T13:16:02.752Z,5.59
2017-12-27T13:18:30.299Z,5.82
2017-12-27T13:20:57.824Z,5.71
2017-12-27T13:23:25.342Z,5.42
2017-12-27T13:25:52.875Z,5.20
2017-12-27T13:28:20.424Z,5.46
2017-12-27T13:30:47.963Z,5.46
2017-12-27T13:33:15.469Z,5.51
2017-12-27T13:35:43.140Z,5.50
2017-12-27T13:38:10.665Z,5.66
2017-12-27T13:40:38.319Z,5.72
2017-12-27T13:43:05.828Z,5.22
2017-12-27T13:45:33.357Z,5.60
2017-12-27T13:48:00.874Z,5.45
2017-12-27T13:50:28.404Z,5.33
2017-12-27T13:52:55.974Z,5.45
2017-12-27T13:55:23.499Z,5.47
2017-12-27T13:57:51.037Z,5.06
2017-12-27T14:00:18.556Z,5.08
2017-12-27T14:02:46.075Z,4.99
2017-12-27T14:05:13.577Z,5.26
2017-12-27T14:07:41.100Z,5.26
2017-12-27T14:10:08.655Z,4.87
2017-12-27T14:12:36.176Z,5.02
2017-12-27T14:15:03.730Z,5.18
2017-12-27T14:17:31.248Z,4.79
2017-12-27T14:19:58.780Z,4.81
2017-12-27T14:22:26.306Z,4.97
2017-12-27T14:24:53.814Z,4.65
2017-12-27T14:27:21.329Z,4.69
2017-12-27T14:29:48.863Z,4.84
2017-12-27T14:32:16.426Z,4.93
2017-12-27T14:34:44.049Z,4.89
2017-12-27T14:37:11.599Z,4.62
2017-12-27T14:39:39.133Z,4.71
2017-12-27T14:42:06.671Z,5.02
2017-12-27T14:44:34.188Z,4.79
2017-12-27T14:47:01.723Z,4.39
2017-12-27T14:49:29.435Z,4.25
2017-12-27T14:51:56.968Z,4.44
2017-12-27T14:54:27.226Z,4.70
2017-12-27T14:56:54.748Z,4.83
2017-12-27T14:59:22.259Z,4.69
2017-12-27T15:01:49.836Z,4.52
2017-12-27T15:04:17.373Z,4.75
2017-12-27T15:06:44.898Z,4.76
2017-12-27T15:09:12.419Z,4.76
2017-12-27T15:11:39.941Z,4.60
2017-12-27T15:14:07.469Z,4.30
2017-12-27T15:16:34.998Z,4.35
2017-12-27T15:19:02.533Z,4.46
2017-12-27T15:21:30.063Z,4.19
2017-12-27T15:23:57.579Z,4.25
2017-12-27T15:26:25.113Z,4.45
2017-12-27T15:28:52.647Z,4.19
2017-12-27T15:31:20.201Z,4.12
2017-12-27T15:33:47.714Z,4.11
2017-12-27T15:36:15.246Z,4.19
2017-12-27T15:38:42.807Z,4.24
2017-12-27T15:41:10.336Z,3.63
2017-12-27T15:43:37.916Z,3.67
2017-12-27T15:46:05.537Z,4.14
2017-12-27T15:48:33.055Z,3.96
2017-12-27T15:51:00.581Z,4.09
2017-12-27T15:53:28.136Z,4.42
2017-12-27T15:55:55.660Z,4.42
2017-12-27T15:58:23.169Z,4.22
2017-12-27T16:00:50.876Z,3.94
2017-12-27T16:03:18.440Z,3.69
2017-12-27T16:05:46.099Z,3.52
2017-12-27T16:08:13.624Z,3.92
2017-12-27T16:10:41.145Z,4.01
2017-12-27T16:13:08.704Z,4.33
2017-12-27T16:15:36.224Z,4.28
2017-12-27T16:18:03.744Z,4.19
2017-12-27T16:20:31.286Z,4.13
2017-12-27T16:22:58.803Z,4.19
2017-12-27T16:25:26.355Z,4.22
2017-12-27T16:27:53.896Z,4.12
2017-12-27T16:30:21.416Z,3.98
2017-12-27T16:32:49.120Z,4.21
2017-12-27T16:35:16.652Z,4.19
2017-12-27T16:37:44.195Z,4.06
2017-12-27T16:40:11.724Z,3.90
2017-12-27T16:42:39.269Z,3.53
2017-12-27T16:45:06.944Z,3.84
2017-12-27T16:47:34.486Z,3.67
2017-12-27T16:50:02.012Z,3.87
2017-12-27T16:52:29.584Z,3.78
2017-12-27T16:54:57.124Z,3.39
2017-12-27T16:57:24.915Z,3.78
2017-12-27T16:59:52.434Z,3.81
2017-12-27T17:02:20.115Z,4.02
2017-12-27T17:04:47.776Z,4.16
2017-12-27T17:07:15.320Z,4.15
2017-12-27T17:09:42.839Z,3.83
2017-12-27T17:12:10.410Z,3.58
2017-12-27T17:14:37.918Z,3.78
2017-12-27T17:17:05.445Z,3.49
2017-12-27T17:19:32.993Z,4.21
2017-12-27T17:22:00.560Z,3.55
2017-12-27T17:24:28.081Z,3.39
2017-12-27T17:26:55.600Z,3.37
2017-12-27T17:29:23.149Z,3.43
2017-12-27T17:31:50.676Z,3.39
2017-12-27T17:34:18.224Z,3.54
2017-12-27T17:36:45.735Z,3.77
2017-12-27T17:39:14.016Z,3.76
2017-12-27T17:41:41.546Z,3.65
2017-12-27T17:44:09.051Z,3.14
2017-12-27T17:46:36.581Z,3.33
2017-12-27T17:49:04.099Z,3.53
2017-12-27T17:51:31.631Z,3.72
2017-12-27T17:53:59.270Z,3.61
2017-12-27T17:56:26.800Z,3.81
2017-12-27T17:58:54.328Z,3.69
2017-12-27T18:01:21.850Z,3.85
2017-12-27T18:03:49.361Z,4.09
2017-12-27T18:06:16.904Z,4.21
2017-12-27T18:08:44.430Z,4.10
2017-12-27T18:11:11.931Z,3.90
2017-12-27T18:13:39.456Z,3.79
2017-12-27T18:16:06.981Z,3.95
2017-12-27T18:18:34.521Z,3.36
2017-12-27T18:21:02.047Z,3.64
2017-12-27T18:23:29.583Z,3.66
2017-12-27T18:25:57.170Z,3.64
2017-12-27T18:28:24.691Z,3.82
2017-12-27T18:30:52.206Z,4.11
2017-12-27T18:33:19.812Z,3.97
2017-12-27T18:35:47.336Z,3.80
2017-12-27T18:38:14.874Z,3.42
2017-12-27T18:40:42.380Z,3.85
2017-12-27T18:43:09.910Z,3.37
2017-12-27T18:45:37.441Z,3.37
2017-12-27T18:48:04.981Z,3.81
2017-12-27T18:50:32.560Z,3.58
2017-12-27T18:53:00.105Z,3.78
2017-12-27T18:55:27.686Z,3.74
2017-12-27T18:57:55.199Z,3.73
2017-12-27T19:00:22.805Z,3.85
2017-12-27T19:02:50.349Z,4.01
2017-12-27T19:05:17.895Z,4.08
2017-12-27T19:07:45.481Z,4.00
2017-12-27T19:10:12.995Z,3.75
2017-12-27T19:12:40.527Z,3.79
2017-12-27T19:15:08.098Z,3.48
2017-12-27T19:17:35.687Z,3.40
2017-12-27T19:20:03.191Z,3.16
2017-12-27T19:22:30.759Z,3.19
2017-12-27T19:24:59.041Z,3.34
2017-12-27T19:27:26.561Z,3.50
2017-12-27T19:29:54.071Z,3.57
2017-12-27T19:32:21.581Z,4.05
2017-12-27T19:34:49.124Z,3.72
2017-12-27T19:37:16.654Z,3.81
2017-12-27T19:39:44.321Z,3.28
2017-12-27T19:42:11.915Z,3.51
2017-12-27T19:44:39.546Z,3.75
2017-12-27T19:47:07.121Z,3.68
2017-12-27T19:49:34.866Z,3.74
2017-12-27T19:52:02.482Z,3.83
2017-12-27T19:54:30.086Z,3.99
2017-12-27T19:56:57.620Z,4.27
2017-12-27T19:59:25.146Z,4.54
2017-12-27T20:01:52.729Z,4.65
2017-12-27T20:04:20.442Z,4.72
2017-12-27T20:06:48.137Z,4.71
2017-12-27T20:09:15.659Z,4.93
2017-12-27T20:11:43.221Z,4.84
2017-12-27T20:14:11.176Z,5.02
2017-12-27T20:16:38.764Z,5.09
2017-12-27T20:19:06.768Z,5.23
2017-12-27T20:21:34.517Z,5.11
2017-12-27T20:24:02.186Z,5.12
2017-12-27T20:26:29.731Z,5.02
2017-12-27T20:28:57.287Z,4.93
2017-12-27T20:31:24.861Z,4.88
2017-12-27T20:33:52.586Z,5.06
2017-12-27T20:36:20.157Z,4.96
2017-12-27T20:38:47.736Z,4.91
2017-12-27T20:41:15.290Z,4.97
2017-12-27T20:43:42.910Z,4.87
2017-12-27T20:46:10.534Z,4.85
2017-12-27T20:48:38.181Z,5.03
2017-12-27T20:51:05.821Z,4.82
2017-12-27T20:53:33.373Z,4.83
2017-12-27T20:56:00.906Z,4.72
2017-12-27T20:58:28.494Z,4.69
2017-12-27T21:00:56.242Z,4.64
2017-12-27T21:03:23.789Z,4.56
2017-12-27T21:05:51.327Z,4.51
2017-12-27T21:08:18.889Z,4.54
2017-12-27T21:10:46.606Z,4.56
2017-12-27T21:13:14.205Z,4.52
2017-12-27T21:15:41.859Z,4.56
2017-12-27T21:18:09.374Z,4.45
2017-12-27T21:20:36.930Z,4.53
2017-12-27T21:23:04.494Z,4.49
2017-12-27T21:25:32.045Z,4.43
2017-12-27T21:27:59.552Z,4.38
2017-12-27T21:30:27.131Z,4.38
2017-12-27T21:32:54.815Z,4.34
2017-12-27T21:35:22.379Z,4.21
2017-12-27T21:37:49.910Z,4.33
2017-12-27T21:40:17.479Z,4.28
2017-12-27T21:42:45.131Z,4.30
2017-12-27T21:45:12.692Z,4.26
2017-12-27T21:47:45.747Z,4.10
2017-12-27T21:50:13.280Z,4.06
2017-12-27T21:52:40.822Z,4.21
2017-12-27T21:55:08.393Z,4.25
2017-12-27T21:57:35.972Z,4.19
2017-12-27T22:00:09.052Z,4.22
2017-12-27T22:02:36.607Z,4.27
2017-12-27T22:05:04.142Z,4.13
2017-12-27T22:07:31.671Z,4.12
2017-12-27T22:09:59.178Z,4.08
2017-12-27T22:12:26.705Z,3.93
2017-12-27T22:14:54.249Z,3.89
2017-12-27T22:17:21.819Z,3.99
2017-12-27T22:19:49.347Z,3.91
2017-12-27T22:22:16.930Z,4.06
2017-12-27T22:24:44.477Z,4.13
2017-12-27T22:27:12.005Z,4.09
2017-12-27T22:29:39.545Z,3.91
2017-12-27T22:32:07.173Z,3.98
2017-12-27T22:34:34.840Z,3.93
2017-12-27T22:37:02.384Z,3.72
2017-12-27T22:39:29.917Z,3.90
2017-12-27T22:41:57.441Z,3.95
2017-12-27T22:44:25.090Z,3.72
2017-12-27T22:46:52.625Z,3.81
2017-12-27T22:49:20.128Z,3.72
2017-12-27T22:51:47.745Z,3.70
2017-12-27T22:54:15.291Z,3.90
2017-12-27T22:56:42.920Z,3.82
2017-12-27T22:59:10.669Z,3.70
2017-12-27T23:01:38.170Z,3.77
2017-12-27T23:04:05.709Z,3.67
2017-12-27T23:06:33.215Z,3.73
2017-12-27T23:09:00.722Z,3.50
2017-12-27T23:11:28.260Z,3.63
2017-12-27T23:13:55.807Z,3.40
2017-12-27T23:16:23.326Z,3.51
2017-12-27T23:18:50.851Z,3.53
2017-12-27T23:21:18.394Z,3.53
2017-12-27T23:23:45.930Z,3.48
2017-12-27T23:26:13.456Z,3.27
2017-12-27T23:28:40.977Z,3.53
2017-12-27T23:31:08.486Z,3.11
2017-12-27T23:33:36.014Z,3.23
2017-12-27T23:36:03.569Z,3.27
2017-12-27T23:38:31.100Z,3.28
2017-12-27T23:40:58.605Z,3.33
2017-12-27T23:43:26.137Z,3.37
2017-12-27T23:45:53.646Z,3.33
2017-12-27T23:48:21.157Z,3.40
2017-12-27T23:50:48.719Z,3.30
2017-12-27T23:53:16.226Z,3.31
2017-12-27T23:55:43.751Z,3.28
2017-12-27T23:58:11.255Z,3.31
